createdAt,value
2023-02-27T00:02:01.570Z,99206.09
2023-02-27T00:04:28.518Z,99209.84
2023-02-27T00:06:55.410Z,99205.78
2023-02-27T00:09:22.210Z,99208.91
2023-02-27T00:11:49.082Z,99201.09
2023-02-27T00:14:18.904Z,99206.13
2023-02-27T00:16:45.781Z,99206.97
2023-02-27T00:19:13.694Z,99213.25
2023-02-27T00:21:44.398Z,99206.88
2023-02-27T00:24:11.686Z,99205.41
2023-02-27T00:26:38.461Z,99208.91
2023-02-27T00:29:06.461Z,99213.47
2023-02-27T00:31:33.504Z,99216.78
2023-02-27T00:34:00.604Z,99218.81
2023-02-27T00:36:29.507Z,99216.16
2023-02-27T00:38:56.353Z,99213.25
2023-02-27T00:41:27.710Z,99214.44
2023-02-27T00:43:54.920Z,99212.75
2023-02-27T00:46:23.056Z,99214.97
2023-02-27T00:48:49.836Z,99213.94
2023-02-27T00:51:16.726Z,99216.91
2023-02-27T00:53:43.554Z,99213.81
2023-02-27T00:56:10.595Z,99214.69
2023-02-27T00:58:37.631Z,99209.50
2023-02-27T01:01:04.665Z,99201.44
2023-02-27T01:03:31.483Z,99197.72
2023-02-27T01:05:58.984Z,99199.56
2023-02-27T01:08:25.938Z,99192.41
2023-02-27T01:10:57.191Z,99194.09
2023-02-27T01:13:24.247Z,99197.22
2023-02-27T01:15:51.685Z,99191.13
2023-02-27T01:18:18.663Z,99191.13
2023-02-27T01:20:45.441Z,99189.66
2023-02-27T01:23:12.661Z,99180.97
2023-02-27T01:25:39.893Z,99187.34
2023-02-27T01:28:06.634Z,99186.75
2023-02-27T01:30:33.758Z,99188.81
2023-02-27T01:33:00.864Z,99187.19
2023-02-27T01:35:27.601Z,99187.78
2023-02-27T01:37:54.426Z,99187.88
2023-02-27T01:40:21.357Z,99179.03
2023-02-27T01:42:48.392Z,99180.50
2023-02-27T01:45:31.130Z,99184.88
2023-02-27T01:48:13.451Z,99182.38
2023-02-27T01:51:08.994Z,99189.53
2023-02-27T01:53:43.019Z,99180.59
2023-02-27T01:56:23.338Z,99183.88
2023-02-27T01:58:55.503Z,99184.31
2023-02-27T02:01:23.500Z,99179.00
2023-02-27T02:04:24.894Z,99188.03
2023-02-27T02:07:00.720Z,99182.16
2023-02-27T02:09:30.198Z,99183.72
2023-02-27T02:11:59.297Z,99187.38
2023-02-27T02:14:26.087Z,99192.03
2023-02-27T02:17:48.015Z,99181.47
2023-02-27T02:21:06.835Z,99175.09
2023-02-27T02:24:17.570Z,99177.78
2023-02-27T02:27:27.749Z,99185.16
2023-02-27T02:30:13.282Z,99185.16
2023-02-27T02:33:02.038Z,99184.72
2023-02-27T02:35:56.551Z,99190.84
2023-02-27T02:38:56.307Z,99193.78
2023-02-27T02:41:32.215Z,99190.75
2023-02-27T02:44:26.304Z,99194.06
2023-02-27T02:47:16.904Z,99189.94
2023-02-27T02:50:05.917Z,99194.81
2023-02-27T02:52:54.039Z,99191.34
2023-02-27T02:56:14.344Z,99193.03
2023-02-27T02:59:06.106Z,99198.84
2023-02-27T03:01:51.609Z,99203.50
2023-02-27T03:04:43.833Z,99201.88
2023-02-27T03:07:37.206Z,99204.56
2023-02-27T03:10:16.115Z,99197.16
2023-02-27T03:12:55.691Z,99198.03
2023-02-27T03:15:30.711Z,99194.16
2023-02-27T03:18:43.325Z,99194.94
2023-02-27T03:21:26.312Z,99194.59
2023-02-27T03:24:00.153Z,99194.19
2023-02-27T03:26:36.433Z,99194.31
2023-02-27T03:29:22.606Z,99198.03
2023-02-27T03:32:04.266Z,99202.38
2023-02-27T03:34:37.303Z,99202.19
2023-02-27T03:37:22.673Z,99203.28
2023-02-27T03:40:07.729Z,99210.44
2023-02-27T03:43:19.295Z,99212.06
2023-02-27T03:45:58.317Z,99210.00
2023-02-27T03:48:25.710Z,99218.59
2023-02-27T03:50:52.749Z,99217.81
2023-02-27T03:53:49.328Z,99221.06
2023-02-27T03:56:24.182Z,99221.22
2023-02-27T03:58:52.579Z,99225.56
2023-02-27T04:01:20.099Z,99229.31
2023-02-27T04:04:00.544Z,99233.59
2023-02-27T04:06:46.634Z,99230.50
2023-02-27T04:09:30.262Z,99229.06
2023-02-27T04:12:45.552Z,99231.38
2023-02-27T04:16:01.677Z,99235.09
2023-02-27T04:19:08.289Z,99236.78
2023-02-27T04:21:41.766Z,99237.78
2023-02-27T04:24:47.472Z,99232.25
2023-02-27T04:27:36.332Z,99237.16
2023-02-27T04:30:37.579Z,99245.31
2023-02-27T04:33:24.580Z,99236.94
2023-02-27T04:36:07.264Z,99244.53
2023-02-27T04:38:58.848Z,99235.94
2023-02-27T04:41:43.524Z,99245.38
2023-02-27T04:44:13.212Z,99247.41
2023-02-27T04:46:44.325Z,99243.94
2023-02-27T04:49:35.148Z,99246.63
2023-02-27T04:52:31.732Z,99246.59
2023-02-27T04:55:25.199Z,99251.06
2023-02-27T04:58:10.282Z,99247.41
2023-02-27T05:00:41.249Z,99248.69
2023-02-27T05:03:25.360Z,99251.56
2023-02-27T05:05:58.783Z,99253.16
2023-02-27T05:08:43.175Z,99253.94
2023-02-27T05:11:34.909Z,99251.50
2023-02-27T05:14:21.398Z,99260.94
2023-02-27T05:17:09.256Z,99261.97
2023-02-27T05:19:41.317Z,99263.00
2023-02-27T05:22:36.372Z,99257.88
2023-02-27T05:25:41.323Z,99259.97
2023-02-27T05:28:21.257Z,99257.72
2023-02-27T05:31:41.419Z,99263.63
2023-02-27T05:34:18.337Z,99259.53
2023-02-27T05:37:02.045Z,99264.47
2023-02-27T05:39:34.458Z,99268.97
2023-02-27T05:42:14.357Z,99264.69
2023-02-27T05:44:49.667Z,99261.00
2023-02-27T05:47:22.636Z,99279.44
2023-02-27T05:50:02.783Z,99270.63
2023-02-27T05:52:32.257Z,99265.34
2023-02-27T05:55:13.886Z,99268.59
2023-02-27T05:57:51.891Z,99275.38
2023-02-27T06:00:29.917Z,99267.56
2023-02-27T06:02:56.769Z,99281.25
2023-02-27T06:05:26.437Z,99273.69
2023-02-27T06:07:53.200Z,99277.63
2023-02-27T06:10:22.198Z,99280.06
2023-02-27T06:12:49.094Z,99272.91
2023-02-27T06:15:17.469Z,99281.72
2023-02-27T06:17:47.357Z,99281.31
2023-02-27T06:20:14.286Z,99283.97
2023-02-27T06:22:41.601Z,99287.66
2023-02-27T06:25:10.457Z,99289.72
2023-02-27T06:27:37.580Z,99291.56
2023-02-27T06:30:07.404Z,99295.88
2023-02-27T06:32:34.603Z,99299.13
2023-02-27T06:35:01.644Z,99297.69
2023-02-27T06:37:28.533Z,99305.91
2023-02-27T06:39:55.271Z,99295.88
2023-02-27T06:42:22.669Z,99298.13
2023-02-27T06:44:49.727Z,99304.84
2023-02-27T06:47:16.799Z,99304.44
2023-02-27T06:49:44.049Z,99307.31
2023-02-27T06:52:10.791Z,99309.97
2023-02-27T06:54:37.960Z,99318.38
2023-02-27T06:57:05.120Z,99313.44
2023-02-27T06:59:33.251Z,99312.03
2023-02-27T07:02:00.597Z,99311.63
2023-02-27T07:04:27.441Z,99319.19
2023-02-27T07:07:34.247Z,99315.25
2023-02-27T07:09:43.070Z,99322.25
2023-02-27T07:12:10.190Z,99318.56
2023-02-27T07:14:37.359Z,99318.75
2023-02-27T07:17:04.806Z,99324.06
2023-02-27T07:19:34.176Z,99325.50
2023-02-27T07:22:01.045Z,99335.69
2023-02-27T07:24:28.061Z,99334.22
2023-02-27T07:26:54.965Z,99328.47
2023-02-27T07:29:22.046Z,99332.16
2023-02-27T07:31:49.010Z,99335.00
2023-02-27T07:34:16.220Z,99334.59
2023-02-27T07:36:45.119Z,99325.94
2023-02-27T07:39:14.679Z,99340.28
2023-02-27T07:41:41.434Z,99337.00
2023-02-27T07:44:10.818Z,99337.38
2023-02-27T07:46:37.690Z,99334.06
2023-02-27T07:49:04.479Z,99345.34
2023-02-27T07:51:31.354Z,99343.03
2023-02-27T07:53:58.728Z,99345.44
2023-02-27T07:56:28.990Z,99349.69
2023-02-27T07:58:56.625Z,99344.94
2023-02-27T08:01:23.438Z,99344.75
2023-02-27T08:03:50.428Z,99346.09
2023-02-27T08:06:17.294Z,99342.72
2023-02-27T08:08:44.388Z,99349.41
2023-02-27T08:11:11.486Z,99343.38
2023-02-27T08:16:25.594Z,99349.22
2023-02-27T08:18:52.604Z,99349.84
2023-02-27T08:21:19.480Z,99349.94
2023-02-27T08:23:46.315Z,99350.38
2023-02-27T08:26:16.101Z,99359.94
2023-02-27T08:28:43.347Z,99345.09
2023-02-27T08:31:10.542Z,99351.31
2023-02-27T08:33:37.345Z,99343.28
2023-02-27T08:36:04.916Z,99340.47
2023-02-27T08:38:32.001Z,99345.59
2023-02-27T08:40:58.874Z,99343.88
2023-02-27T08:43:25.704Z,99344.25
2023-02-27T08:45:56.360Z,99354.16
2023-02-27T08:48:24.802Z,99347.63
2023-02-27T08:50:52.237Z,99348.09
2023-02-27T08:53:22.173Z,99354.59
2023-02-27T08:55:53.258Z,99360.00
2023-02-27T08:58:20.212Z,99365.56
2023-02-27T09:00:47.416Z,99368.84
2023-02-27T09:03:16.639Z,99364.72
2023-02-27T09:05:44.084Z,99357.19
2023-02-27T09:08:12.996Z,99361.19
2023-02-27T09:10:39.769Z,99364.53
2023-02-27T09:13:06.548Z,99362.22
2023-02-27T09:15:35.966Z,99353.44
2023-02-27T09:18:03.919Z,99362.66
2023-02-27T09:20:31.728Z,99365.81
2023-02-27T09:22:59.794Z,99359.53
2023-02-27T09:25:27.579Z,99353.34
2023-02-27T09:27:55.355Z,99356.25
2023-02-27T09:30:23.351Z,99362.47
2023-02-27T09:32:50.785Z,99355.03
2023-02-27T09:35:20.556Z,99369.97
2023-02-27T09:37:49.442Z,99377.44
2023-02-27T09:40:31.506Z,99363.72
2023-02-27T09:43:09.570Z,99370.84
2023-02-27T09:45:39.507Z,99371.06
2023-02-27T09:48:30.398Z,99375.25
2023-02-27T09:50:59.180Z,99378.56
2023-02-27T09:53:49.681Z,99375.03
2023-02-27T09:56:28.450Z,99376.38
2023-02-27T09:59:36.875Z,99375.41
2023-02-27T10:02:12.392Z,99373.25
2023-02-27T10:05:11.718Z,99376.44
2023-02-27T10:08:04.610Z,99369.84
2023-02-27T10:11:00.812Z,99379.47
2023-02-27T10:13:53.518Z,99371.78
2023-02-27T10:16:24.392Z,99382.91
2023-02-27T10:19:07.411Z,99384.41
2023-02-27T10:21:43.843Z,99386.03
2023-02-27T10:24:38.023Z,99399.94
2023-02-27T10:27:15.870Z,99392.94
2023-02-27T10:29:43.121Z,99389.09
2023-02-27T10:32:29.859Z,99398.59
2023-02-27T10:35:27.139Z,99394.88
2023-02-27T10:38:04.268Z,99403.63
2023-02-27T10:40:35.332Z,99396.16
2023-02-27T10:43:06.136Z,99404.38
2023-02-27T10:45:34.842Z,99390.22
2023-02-27T10:48:04.575Z,99392.06
2023-02-27T10:50:39.184Z,99398.09
2023-02-27T10:53:28.098Z,99392.06
2023-02-27T10:56:04.316Z,99401.53
2023-02-27T10:58:35.545Z,99393.91
2023-02-27T11:01:06.962Z,99411.16
2023-02-27T11:03:41.377Z,99404.78
2023-02-27T11:06:26.467Z,99402.50
2023-02-27T11:09:13.479Z,99393.03
2023-02-27T11:11:40.342Z,99399.75
2023-02-27T11:14:19.514Z,99392.88
2023-02-27T11:16:52.834Z,99404.41
2023-02-27T11:19:37.253Z,99393.75
2023-02-27T11:22:20.309Z,99394.41
2023-02-27T11:24:48.138Z,99386.47
2023-02-27T11:27:28.793Z,99385.69
2023-02-27T11:30:28.359Z,99380.03
2023-02-27T11:33:00.740Z,99385.13
2023-02-27T11:35:38.647Z,99382.53
2023-02-27T11:38:18.204Z,99385.19
2023-02-27T11:41:01.776Z,99378.94
2023-02-27T11:43:39.971Z,99370.44
2023-02-27T11:46:46.804Z,99368.44
2023-02-27T11:49:35.914Z,99367.81
2023-02-27T11:52:20.467Z,99379.63
2023-02-27T11:54:57.141Z,99376.72
2023-02-27T11:57:41.394Z,99371.41
2023-02-27T12:00:22.685Z,99363.78
2023-02-27T12:03:23.616Z,99372.09
2023-02-27T12:06:04.844Z,99376.97
2023-02-27T12:08:45.912Z,99385.78
2023-02-27T12:11:44.144Z,99369.53
2023-02-27T12:14:27.679Z,99373.59
2023-02-27T12:17:07.067Z,99368.22
2023-02-27T12:20:13.599Z,99364.16
2023-02-27T12:22:46.955Z,99363.13
2023-02-27T12:25:54.040Z,99356.69
2023-02-27T12:28:34.929Z,99349.03
2023-02-27T12:31:23.461Z,99356.72
2023-02-27T12:34:03.880Z,99351.88
2023-02-27T12:36:31.402Z,99349.81
2023-02-27T12:39:01.334Z,99345.16
2023-02-27T12:42:09.391Z,99344.69
2023-02-27T12:45:27.711Z,99347.38
2023-02-27T12:48:45.517Z,99336.03
2023-02-27T12:51:58.393Z,99351.66
2023-02-27T12:54:53.631Z,99345.06
2023-02-27T12:58:03.752Z,99342.50
2023-02-27T13:00:59.907Z,99345.16
2023-02-27T13:04:00.709Z,99342.75
2023-02-27T13:06:51.677Z,99339.13
2023-02-27T13:09:34.698Z,99346.84
2023-02-27T13:12:12.277Z,99337.25
2023-02-27T13:15:23.657Z,99348.00
2023-02-27T13:18:41.340Z,99350.88
2023-02-27T13:21:48.358Z,99344.94
2023-02-27T13:24:31.624Z,99337.44
2023-02-27T13:27:17.989Z,99315.78
2023-02-27T13:30:01.491Z,99343.53
2023-02-27T13:32:44.033Z,99345.22
2023-02-27T13:35:36.243Z,99330.38
2023-02-27T13:38:41.702Z,99334.25
2023-02-27T13:41:23.829Z,99343.09
2023-02-27T13:43:55.992Z,99336.53
2023-02-27T13:46:33.756Z,99340.75
2023-02-27T13:49:20.022Z,99330.41
2023-02-27T13:51:56.752Z,99329.31
2023-02-27T13:54:29.651Z,99331.22
2023-02-27T13:56:59.379Z,99346.25
2023-02-27T13:59:41.813Z,99335.56
2023-02-27T14:02:11.646Z,99340.91
2023-02-27T14:04:53.958Z,99334.94
2023-02-27T14:07:26.033Z,99335.75
2023-02-27T14:10:12.801Z,99340.53
2023-02-27T14:12:45.887Z,99342.25
2023-02-27T14:15:22.182Z,99344.75
2023-02-27T14:18:12.368Z,99342.41
2023-02-27T14:20:42.551Z,99334.81
2023-02-27T14:23:26.696Z,99343.41
2023-02-27T14:26:05.300Z,99344.84
2023-02-27T14:28:55.524Z,99345.44
2023-02-27T14:31:36.674Z,99341.53
2023-02-27T14:34:06.224Z,99332.88
2023-02-27T14:36:42.614Z,99337.34
2023-02-27T14:39:24.008Z,99350.50
2023-02-27T14:42:09.161Z,99341.50
2023-02-27T14:44:46.899Z,99341.84
2023-02-27T14:47:33.557Z,99342.81
2023-02-27T14:50:04.044Z,99341.41
2023-02-27T14:52:41.778Z,99344.38
2023-02-27T14:55:27.682Z,99339.19
2023-02-27T14:58:31.517Z,99343.25
2023-02-27T15:01:09.878Z,99340.69
2023-02-27T15:03:50.242Z,99352.53
2023-02-27T15:06:30.098Z,99366.25
2023-02-27T15:08:57.226Z,99353.59
2023-02-27T15:11:28.012Z,99360.31
2023-02-27T15:14:03.465Z,99365.97
2023-02-27T15:16:42.935Z,99373.28
2023-02-27T15:19:19.178Z,99370.09
2023-02-27T15:21:57.144Z,99371.84
2023-02-27T15:24:43.854Z,99374.91
2023-02-27T15:27:23.725Z,99379.59
2023-02-27T15:29:58.651Z,99379.91
2023-02-27T15:32:35.247Z,99378.78
2023-02-27T15:35:13.550Z,99376.34
2023-02-27T15:37:55.138Z,99387.03
2023-02-27T15:40:33.254Z,99391.53
2023-02-27T15:43:01.804Z,99380.22
2023-02-27T15:45:35.982Z,99395.09
2023-02-27T15:48:04.761Z,99396.75
2023-02-27T15:50:37.316Z,99391.53
2023-02-27T15:53:25.698Z,99398.31
2023-02-27T15:55:57.950Z,99396.75
2023-02-27T15:58:31.072Z,99395.19
2023-02-27T16:01:07.677Z,99398.44
2023-02-27T16:03:42.372Z,99405.78
2023-02-27T16:06:34.082Z,99409.75
2023-02-27T16:09:19.308Z,99405.84
2023-02-27T16:11:46.494Z,99415.22
2023-02-27T16:14:41.177Z,99408.06
2023-02-27T16:17:30.611Z,99422.47
2023-02-27T16:20:02.243Z,99415.84
2023-02-27T16:22:30.517Z,99425.53
2023-02-27T16:25:10.528Z,99424.75
2023-02-27T16:27:39.420Z,99433.19
2023-02-27T16:30:12.256Z,99439.00
2023-02-27T16:32:42.331Z,99432.81
2023-02-27T16:35:20.170Z,99442.38
2023-02-27T16:37:49.127Z,99443.09
2023-02-27T16:40:24.807Z,99447.41
2023-02-27T16:42:52.911Z,99446.25
2023-02-27T16:45:24.410Z,99453.72
2023-02-27T16:47:57.240Z,99452.91
2023-02-27T16:50:32.270Z,99455.81
2023-02-27T16:53:00.077Z,99452.81
2023-02-27T16:55:29.652Z,99456.91
2023-02-27T16:57:56.782Z,99460.88
2023-02-27T17:00:23.929Z,99471.38
2023-02-27T17:02:51.339Z,99461.94
2023-02-27T17:05:19.015Z,99464.75
2023-02-27T17:07:46.559Z,99464.50
2023-02-27T17:10:19.699Z,99472.66
2023-02-27T17:12:47.972Z,99480.38
2023-02-27T17:15:15.473Z,99477.47
2023-02-27T17:17:42.889Z,99482.13
2023-02-27T17:20:12.834Z,99489.38
2023-02-27T17:22:43.763Z,99481.47
2023-02-27T17:25:14.513Z,99488.34
2023-02-27T17:27:44.687Z,99491.81
2023-02-27T17:30:14.625Z,99484.25
2023-02-27T17:32:41.493Z,99490.78
2023-02-27T17:35:08.995Z,99492.41
2023-02-27T17:37:37.331Z,99493.13
2023-02-27T17:40:08.253Z,99499.06
2023-02-27T17:42:39.872Z,99502.59
2023-02-27T17:45:10.829Z,99502.47
2023-02-27T17:47:40.786Z,99498.38
2023-02-27T17:50:08.012Z,99509.81
2023-02-27T17:52:37.967Z,99510.06
2023-02-27T17:55:09.953Z,99509.47
2023-02-27T17:57:42.118Z,99506.91
2023-02-27T18:00:15.244Z,99518.00
2023-02-27T18:02:45.244Z,99522.63
2023-02-27T18:05:12.157Z,99523.47
2023-02-27T18:07:39.610Z,99521.94
2023-02-27T18:10:08.979Z,99517.78
2023-02-27T18:12:37.235Z,99518.56
2023-02-27T18:15:05.834Z,99529.88
2023-02-27T18:17:33.049Z,99518.25
2023-02-27T18:20:00.218Z,99520.09
2023-02-27T18:22:27.406Z,99524.28
2023-02-27T18:24:56.150Z,99522.28
2023-02-27T18:27:22.945Z,99525.69
2023-02-27T18:29:50.279Z,99530.22
2023-02-27T18:32:18.116Z,99527.44
2023-02-27T18:34:47.368Z,99525.56
2023-02-27T18:37:14.681Z,99531.38
2023-02-27T18:39:42.648Z,99529.41
2023-02-27T18:42:09.472Z,99526.38
2023-02-27T18:44:38.429Z,99525.91
2023-02-27T18:47:05.599Z,99529.88
2023-02-27T18:49:32.547Z,99531.41
2023-02-27T18:51:59.460Z,99525.00
2023-02-27T18:54:26.341Z,99519.50
2023-02-27T18:56:54.483Z,99522.06
2023-02-27T18:59:21.353Z,99518.69
2023-02-27T19:01:48.159Z,99524.84
2023-02-27T19:04:16.474Z,99524.53
2023-02-27T19:06:43.554Z,99524.75
2023-02-27T19:09:16.224Z,99526.03
2023-02-27T19:11:48.567Z,99523.00
2023-02-27T19:14:16.418Z,99530.56
2023-02-27T19:16:49.578Z,99534.53
2023-02-27T19:19:18.314Z,99532.44
2023-02-27T19:21:47.849Z,99528.34
2023-02-27T19:24:18.736Z,99525.22
2023-02-27T19:26:45.695Z,99524.97
2023-02-27T19:29:15.332Z,99525.56
2023-02-27T19:31:44.231Z,99529.19
2023-02-27T19:34:14.957Z,99527.78
2023-02-27T19:36:41.822Z,99529.28
2023-02-27T19:39:10.319Z,99519.59
2023-02-27T19:41:37.506Z,99527.91
2023-02-27T19:44:04.461Z,99527.31
2023-02-27T19:46:34.219Z,99535.09
2023-02-27T19:49:05.126Z,99537.66
2023-02-27T19:51:32.896Z,99548.84
2023-02-27T19:53:59.882Z,99546.03
2023-02-27T19:56:28.973Z,99541.38
2023-02-27T19:58:56.580Z,99539.38
2023-02-27T20:01:38.891Z,99544.97
2023-02-27T20:04:08.206Z,99543.94
2023-02-27T20:06:45.082Z,99542.31
2023-02-27T20:09:17.209Z,99547.88
2023-02-27T20:11:50.939Z,99546.81
2023-02-27T20:14:17.821Z,99537.69
2023-02-27T20:16:45.407Z,99536.50
2023-02-27T20:19:16.613Z,99548.78
2023-02-27T20:21:44.743Z,99545.19
2023-02-27T20:24:12.605Z,99552.63
2023-02-27T20:26:43.762Z,99538.66
2023-02-27T20:29:18.140Z,99549.94
2023-02-27T20:31:49.302Z,99557.84
2023-02-27T20:34:22.142Z,99554.63
2023-02-27T20:36:50.611Z,99557.75
2023-02-27T20:39:18.895Z,99550.72
2023-02-27T20:41:46.996Z,99546.25
2023-02-27T20:44:14.350Z,99537.19
2023-02-27T20:46:43.549Z,99548.50
2023-02-27T20:49:15.447Z,99533.69
2023-02-27T20:51:43.351Z,99531.53
2023-02-27T20:54:16.394Z,99528.50
2023-02-27T20:56:44.122Z,99521.97
2023-02-27T20:59:16.904Z,99524.72
2023-02-27T21:01:51.391Z,99525.38
2023-02-27T21:04:24.793Z,99526.00
2023-02-27T21:06:52.811Z,99521.00
2023-02-27T21:09:19.781Z,99521.00
2023-02-27T21:11:49.131Z,99521.53
2023-02-27T21:14:16.598Z,99520.50
2023-02-27T21:16:43.544Z,99523.16
2023-02-27T21:19:10.463Z,99527.22
2023-02-27T21:21:38.395Z,99521.72
2023-02-27T21:24:06.094Z,99525.84
2023-02-27T21:26:38.400Z,99522.63
2023-02-27T21:29:11.037Z,99517.28
2023-02-27T21:31:41.069Z,99519.00
2023-02-27T21:34:12.730Z,99521.88
2023-02-27T21:36:43.332Z,99519.03
2023-02-27T21:39:22.944Z,99518.25
2023-02-27T21:41:50.876Z,99519.88
2023-02-27T21:44:24.882Z,99514.53
2023-02-27T21:46:53.847Z,99515.41
2023-02-27T21:49:28.688Z,99514.81
2023-02-27T21:51:56.969Z,99510.53
2023-02-27T21:54:23.933Z,99506.84
2023-02-27T21:56:52.096Z,99502.41
2023-02-27T21:59:20.360Z,99509.13
2023-02-27T22:01:48.235Z,99511.00
2023-02-27T22:04:18.244Z,99507.28
2023-02-27T22:06:45.888Z,99496.88
2023-02-27T22:09:13.590Z,99503.63
2023-02-27T22:11:40.976Z,99500.81
2023-02-27T22:14:09.393Z,99499.78
2023-02-27T22:16:39.471Z,99503.88
2023-02-27T22:19:09.203Z,99498.53
2023-02-27T22:21:38.424Z,99499.28
2023-02-27T22:24:07.168Z,99502.59
2023-02-27T22:26:35.227Z,99499.47
2023-02-27T22:29:03.192Z,99502.16
2023-02-27T22:31:34.435Z,99499.31
2023-02-27T22:34:18.234Z,99495.84
2023-02-27T22:36:48.648Z,99500.31
2023-02-27T22:39:15.604Z,99497.50
2023-02-27T22:41:42.858Z,99493.63
2023-02-27T22:44:17.728Z,99495.47
2023-02-27T22:46:48.324Z,99495.84
2023-02-27T22:49:22.790Z,99492.31
2023-02-27T22:51:51.897Z,99493.38
2023-02-27T22:54:21.805Z,99491.38
2023-02-27T22:56:57.845Z,99487.28
2023-02-27T22:59:25.687Z,99489.91
2023-02-27T23:01:53.990Z,99486.56
2023-02-27T23:04:22.209Z,99485.16
2023-02-27T23:06:52.483Z,99491.75
2023-02-27T23:09:24.015Z,99480.47
2023-02-27T23:11:51.606Z,99485.06
2023-02-27T23:14:19.164Z,99491.84
2023-02-27T23:16:46.636Z,99492.19
2023-02-27T23:19:17.243Z,99488.91
2023-02-27T23:21:44.447Z,99494.25
2023-02-27T23:24:19.367Z,99486.97
2023-02-27T23:26:49.662Z,99495.25
2023-02-27T23:29:20.145Z,99499.72
2023-02-27T23:31:47.152Z,99499.19
2023-02-27T23:34:14.033Z,99496.13
2023-02-27T23:36:41.040Z,99490.00
2023-02-27T23:39:08.886Z,99491.22
2023-02-27T23:41:35.936Z,99494.94
2023-02-27T23:44:03.320Z,99500.69
2023-02-27T23:46:30.798Z,99488.13
2023-02-27T23:49:03.295Z,99486.94
2023-02-27T23:51:31.072Z,99489.00
2023-02-27T23:53:59.646Z,99492.34
2023-02-27T23:56:30.329Z,99486.22
2023-02-27T23:59:04.256Z,99491.78
